Time,TemperatureF,DewpointF,PressureIn,WindDirection,WindDirectionDegrees,WindSpeedMPH,WindSpeedGustMPH,Humidity,HourlyPrecipIn,Conditions,Clouds,dailyrainin,SoftwareType,DateUTC
2013-02-03 00:04:00,47.2,23.5,30.35,SW,225,1.0,2.0,39,0.00,,,0.00,Wunderground v.1.15,2013-02-03 07:04:00,
2013-02-03 00:10:00,47.3,22.9,30.35,WSW,238,1.0,1.0,38,0.00,,,0.00,Wunderground v.1.15,2013-02-03 07:10:00,
2013-02-03 00:16:00,47.5,23.1,30.35,SW,226,0.0,1.0,38,0.00,,,0.00,Wunderground v.1.15,2013-02-03 07:16:00,
2013-02-03 00:21:00,47.3,22.9,30.36,SSW,208,0.0,1.0,38,0.00,,,0.00,Wunderground v.1.15,2013-02-03 07:21:00,
2013-02-03 00:28:00,47.3,22.3,30.36,WSW,245,0.0,1.0,37,0.00,,,0.00,Wunderground v.1.15,2013-02-03 07:28:00,
2013-02-03 00:34:00,47.6,22.6,30.36,SW,215,0.0,1.0,37,0.00,,,0.00,Wunderground v.1.15,2013-02-03 07:34:00,
2013-02-03 00:39:00,47.4,23.0,30.36,South,188,0.0,1.0,38,0.00,,,0.00,Wunderground v.1.15,2013-02-03 07:39:00,
2013-02-03 00:46:00,46.5,23.4,30.35,SSW,210,1.0,2.0,40,0.00,,,0.00,Wunderground v.1.15,2013-02-03 07:46:00,
2013-02-03 00:51:00,46.0,22.4,30.35,WSW,245,2.0,4.0,39,0.00,,,0.00,Wunderground v.1.15,2013-02-03 07:51:00,
2013-02-03 00:58:00,46.1,21.9,30.35,WSW,237,1.0,4.0,38,0.00,,,0.00,Wunderground v.1.15,2013-02-03 07:58:00,
2013-02-03 01:04:00,46.3,22.0,30.35,SW,225,0.0,1.0,38,0.00,,,0.00,Wunderground v.1.15,2013-02-03 08:04:00,
2013-02-03 01:09:00,46.5,21.6,30.35,SW,224,0.0,1.0,37,0.00,,,0.00,Wunderground v.1.15,2013-02-03 08:09:00,
2013-02-03 01:16:00,46.8,21.9,30.35,SW,233,0.0,1.0,37,0.00,,,0.00,Wunderground v.1.15,2013-02-03 08:16:00,
2013-02-03 01:22:00,46.5,22.2,30.35,SW,217,0.0,1.0,38,0.00,,,0.00,Wunderground v.1.15,2013-02-03 08:22:00,
2013-02-03 01:27:00,46.2,23.2,30.34,SSW,192,0.0,2.0,40,0.00,,,0.00,Wunderground v.1.15,2013-02-03 08:27:00,
2013-02-03 01:34:00,46.3,22.7,30.34,South,179,1.0,1.0,39,0.00,,,0.00,Wunderground v.1.15,2013-02-03 08:34:00,
2013-02-03 01:40:00,46.3,22.0,30.34,SSW,196,1.0,2.0,38,0.00,,,0.00,Wunderground v.1.15,2013-02-03 08:40:00,
2013-02-03 01:45:00,46.4,22.1,30.33,SSW,200,2.0,2.0,38,0.00,,,0.00,Wunderground v.1.15,2013-02-03 08:45:00,
2013-02-03 01:52:00,46.1,22.5,30.33,SSW,205,2.0,2.0,39,0.00,,,0.00,Wunderground v.1.15,2013-02-03 08:52:00,
2013-02-03 01:57:00,45.7,22.1,30.32,SSW,195,2.0,3.0,39,0.00,,,0.00,Wunderground v.1.15,2013-02-03 08:57:00,
2013-02-03 02:03:00,45.7,21.5,30.32,SW,217,2.0,2.0,38,0.00,,,0.00,Wunderground v.1.15,2013-02-03 09:03:00,
2013-02-03 02:10:00,46.2,20.7,30.31,SW,233,1.0,1.0,36,0.00,,,0.00,Wunderground v.1.15,2013-02-03 09:10:00,
2013-02-03 02:15:00,46.6,21.0,30.31,SSW,205,1.0,3.0,36,0.00,,,0.00,Wunderground v.1.15,2013-02-03 09:15:00,
2013-02-03 02:21:00,46.7,21.8,30.31,SW,233,2.0,2.0,37,0.00,,,0.00,Wunderground v.1.15,2013-02-03 09:21:00,
2013-02-03 02:28:00,46.6,21.7,30.31,SW,215,1.0,2.0,37,0.00,,,0.00,Wunderground v.1.15,2013-02-03 09:28:00,
2013-02-03 02:34:00,47.3,21.0,30.30,SW,214,0.0,2.0,35,0.00,,,0.00,Wunderground v.1.15,2013-02-03 09:34:00,
2013-02-03 02:40:00,47.8,20.8,30.31,SW,224,0.0,1.0,34,0.00,,,0.00,Wunderground v.1.15,2013-02-03 09:40:00,
2013-02-03 02:46:00,48.0,22.3,30.31,SSW,200,1.0,2.0,36,0.00,,,0.00,Wunderground v.1.15,2013-02-03 09:46:00,
2013-02-03 02:51:00,47.9,22.8,30.30,SW,233,0.0,1.0,37,0.00,,,0.00,Wunderground v.1.15,2013-02-03 09:51:00,
2013-02-03 02:58:00,47.6,22.6,30.30,SW,233,0.0,1.0,37,0.00,,,0.00,Wunderground v.1.15,2013-02-03 09:58:00,
2013-02-03 03:04:00,47.6,23.2,30.30,WSW,241,0.0,1.0,38,0.00,,,0.00,Wunderground v.1.15,2013-02-03 10:04:00,
2013-02-03 03:09:00,47.7,22.0,30.30,WNW,293,0.0,2.0,36,0.00,,,0.00,Wunderground v.1.15,2013-02-03 10:09:00,
2013-02-03 03:16:00,48.0,22.3,30.30,South,179,0.0,2.0,36,0.00,,,0.00,Wunderground v.1.15,2013-02-03 10:16:00,
2013-02-03 03:22:00,48.4,22.6,30.30,WSW,245,1.0,2.0,36,0.00,,,0.00,Wunderground v.1.15,2013-02-03 10:22:00,
2013-02-03 03:27:00,48.1,23.0,30.30,WSW,247,1.0,2.0,37,0.00,,,0.00,Wunderground v.1.15,2013-02-03 10:27:00,
2013-02-03 03:34:00,47.7,23.3,30.30,SW,217,0.0,1.0,38,0.00,,,0.00,Wunderground v.1.15,2013-02-03 10:34:00,
2013-02-03 03:40:00,47.1,23.4,30.30,SSW,195,0.0,1.0,39,0.00,,,0.00,Wunderground v.1.15,2013-02-03 10:40:00,
2013-02-03 03:45:00,47.1,22.8,30.30,WSW,240,0.0,1.0,38,0.00,,,0.00,Wunderground v.1.15,2013-02-03 10:45:00,
2013-02-03 03:52:00,47.3,22.9,30.29,SSW,210,0.0,1.0,38,0.00,,,0.00,Wunderground v.1.15,2013-02-03 10:52:00,
2013-02-03 03:58:00,46.9,22.6,30.29,SW,219,0.0,1.0,38,0.00,,,0.00,Wunderground v.1.15,2013-02-03 10:58:00,
2013-02-03 04:04:00,46.7,23.0,30.29,SSW,212,0.0,1.0,39,0.00,,,0.00,Wunderground v.1.15,2013-02-03 11:04:00,
2013-02-03 04:10:00,45.9,22.9,30.29,SW,215,1.0,1.0,40,0.00,,,0.00,Wunderground v.1.15,2013-02-03 11:10:00,
2013-02-03 04:16:00,45.1,22.8,30.29,SW,232,2.0,3.0,41,0.00,,,0.00,Wunderground v.1.15,2013-02-03 11:16:00,
2013-02-03 04:22:00,44.6,22.9,30.28,SSW,203,1.0,1.0,42,0.00,,,0.00,Wunderground v.1.15,2013-02-03 11:22:00,
2013-02-03 04:28:00,44.4,22.7,30.28,SSW,201,1.0,1.0,42,0.00,,,0.00,Wunderground v.1.15,2013-02-03 11:28:00,
2013-02-03 04:34:00,43.8,22.7,30.28,SSW,193,1.0,4.0,43,0.00,,,0.00,Wunderground v.1.15,2013-02-03 11:34:00,
2013-02-03 04:40:00,43.9,22.3,30.28,WSW,239,2.0,2.0,42,0.00,,,0.00,Wunderground v.1.15,2013-02-03 11:40:00,
2013-02-03 04:46:00,44.1,21.9,30.28,SSW,211,1.0,2.0,41,0.00,,,0.00,Wunderground v.1.15,2013-02-03 11:46:00,
2013-02-03 04:52:00,44.4,22.1,30.28,SSW,208,1.0,1.0,41,0.00,,,0.00,Wunderground v.1.15,2013-02-03 11:52:00,
2013-02-03 04:58:00,44.4,22.1,30.27,SSW,211,2.0,2.0,41,0.00,,,0.00,Wunderground v.1.15,2013-02-03 11:58:00,
2013-02-03 05:04:00,44.9,22.0,30.27,South,191,2.0,2.0,40,0.00,,,0.00,Wunderground v.1.15,2013-02-03 12:04:00,
2013-02-03 05:10:00,45.1,22.2,30.27,SW,221,2.0,2.0,40,0.00,,,0.00,Wunderground v.1.15,2013-02-03 12:10:00,
2013-02-03 05:16:00,45.1,22.8,30.27,SSW,207,1.0,2.0,41,0.00,,,0.00,Wunderground v.1.15,2013-02-03 12:16:00,
2013-02-03 05:22:00,45.3,22.4,30.27,SW,221,0.0,1.0,40,0.00,,,0.00,Wunderground v.1.15,2013-02-03 12:22:00,
2013-02-03 05:27:00,45.5,21.9,30.27,WSW,238,0.0,1.0,39,0.00,,,0.00,Wunderground v.1.15,2013-02-03 12:27:00,
2013-02-03 05:34:00,45.7,22.7,30.27,SSW,208,0.0,1.0,40,0.00,,,0.00,Wunderground v.1.15,2013-02-03 12:34:00,
2013-02-03 05:40:00,45.3,23.5,30.27,SSW,208,0.0,1.0,42,0.00,,,0.00,Wunderground v.1.15,2013-02-03 12:40:00,
2013-02-03 05:46:00,44.8,23.1,30.27,SSW,209,0.0,1.0,42,0.00,,,0.00,Wunderground v.1.15,2013-02-03 12:46:00,
2013-02-03 05:52:00,45.0,22.1,30.27,SW,232,0.0,1.0,40,0.00,,,0.00,Wunderground v.1.15,2013-02-03 12:52:00,
2013-02-03 05:57:00,45.2,22.9,30.27,ESE,113,0.0,1.0,41,0.00,,,0.00,Wunderground v.1.15,2013-02-03 12:57:00,
2013-02-03 06:04:00,45.0,23.8,30.27,SE,143,0.0,1.0,43,0.00,,,0.00,Wunderground v.1.15,2013-02-03 13:04:00,
2013-02-03 06:10:00,44.9,23.2,30.26,SE,142,0.0,1.0,42,0.00,,,0.00,Wunderground v.1.15,2013-02-03 13:10:00,
2013-02-03 06:16:00,44.8,24.2,30.26,South,170,0.0,1.0,44,0.00,,,0.00,Wunderground v.1.15,2013-02-03 13:16:00,
2013-02-03 06:22:00,45.3,23.0,30.26,SSW,198,0.0,1.0,41,0.00,,,0.00,Wunderground v.1.15,2013-02-03 13:22:00,
2013-02-03 06:28:00,46.0,23.6,30.26,South,183,0.0,1.0,41,0.00,,,0.00,Wunderground v.1.15,2013-02-03 13:28:00,
2013-02-03 06:34:00,45.8,24.0,30.26,SSE,163,0.0,1.0,42,0.00,,,0.00,Wunderground v.1.15,2013-02-03 13:34:00,
2013-02-03 06:40:00,45.5,23.7,30.26,SSE,163,0.0,1.0,42,0.00,,,0.00,Wunderground v.1.15,2013-02-03 13:40:00,
2013-02-03 06:45:00,45.3,24.6,30.26,SSW,197,0.0,1.0,44,0.00,,,0.00,Wunderground v.1.15,2013-02-03 13:45:00,
2013-02-03 06:52:00,45.0,24.9,30.26,SSW,207,0.0,1.0,45,0.00,,,0.00,Wunderground v.1.15,2013-02-03 13:52:00,
2013-02-03 06:58:00,44.8,24.7,30.25,SSW,204,0.0,1.0,45,0.00,,,0.00,Wunderground v.1.15,2013-02-03 13:58:00,
2013-02-03 07:03:00,44.8,24.7,30.26,SSW,200,0.0,3.0,45,0.00,,,0.00,Wunderground v.1.15,2013-02-03 14:03:00,
2013-02-03 07:10:00,45.0,24.4,30.25,SW,217,1.0,1.0,44,0.00,,,0.00,Wunderground v.1.15,2013-02-03 14:10:00,
2013-02-03 07:16:00,45.0,24.9,30.26,SW,236,1.0,1.0,45,0.00,,,0.00,Wunderground v.1.15,2013-02-03 14:16:00,
2013-02-03 07:21:00,45.0,24.9,30.26,SW,236,0.0,1.0,45,0.00,,,0.00,Wunderground v.1.15,2013-02-03 14:21:00,
2013-02-03 07:28:00,44.9,24.8,30.26,SW,236,0.0,1.0,45,0.00,,,0.00,Wunderground v.1.15,2013-02-03 14:28:00,
2013-02-03 07:33:00,45.0,24.9,30.26,SW,236,0.0,1.0,45,0.00,,,0.00,Wunderground v.1.15,2013-02-03 14:33:00,
2013-02-03 07:39:00,45.2,25.1,30.26,SW,236,0.0,1.0,45,0.00,,,0.00,Wunderground v.1.15,2013-02-03 14:39:00,
2013-02-03 07:46:00,45.5,25.4,30.25,SW,236,0.0,1.0,45,0.00,,,0.00,Wunderground v.1.15,2013-02-03 14:46:00,
2013-02-03 07:51:00,45.8,25.1,30.25,SW,236,0.0,1.0,44,0.00,,,0.00,Wunderground v.1.15,2013-02-03 14:51:00,
2013-02-03 07:58:00,46.2,25.5,30.26,SW,236,0.0,1.0,44,0.00,,,0.00,Wunderground v.1.15,2013-02-03 14:58:00,
2013-02-03 08:03:00,46.4,26.2,30.26,SSW,211,0.0,1.0,45,0.00,,,0.00,Wunderground v.1.15,2013-02-03 15:03:00,
2013-02-03 08:10:00,46.9,26.1,30.26,SSW,211,0.0,1.0,44,0.00,,,0.00,Wunderground v.1.15,2013-02-03 15:10:00,
2013-02-03 08:16:00,47.2,26.9,30.25,SSW,212,0.0,1.0,45,0.00,,,0.00,Wunderground v.1.15,2013-02-03 15:16:00,
2013-02-03 08:21:00,47.5,26.6,30.25,SSW,211,0.0,1.0,44,0.00,,,0.00,Wunderground v.1.15,2013-02-03 15:21:00,
2013-02-03 08:28:00,47.9,26.5,30.25,SSW,211,0.0,1.0,43,0.00,,,0.00,Wunderground v.1.15,2013-02-03 15:28:00,
2013-02-03 08:34:00,48.5,25.2,30.26,SSW,211,0.0,1.0,40,0.00,,,0.00,Wunderground v.1.15,2013-02-03 15:34:00,
2013-02-03 08:39:00,49.2,23.4,30.25,SSW,211,0.0,1.0,36,0.00,,,0.00,Wunderground v.1.15,2013-02-03 15:39:00,
2013-02-03 08:46:00,50.3,21.5,30.25,ESE,122,0.0,1.0,32,0.00,,,0.00,Wunderground v.1.15,2013-02-03 15:46:00,
2013-02-03 08:52:00,51.6,20.3,30.25,ESE,119,0.0,1.0,29,0.00,,,0.00,Wunderground v.1.15,2013-02-03 15:52:00,
2013-02-03 08:57:00,52.4,19.3,30.25,SE,127,0.0,1.0,27,0.00,,,0.00,Wunderground v.1.15,2013-02-03 15:57:00,
2013-02-03 09:04:00,53.1,19.1,30.25,ESE,123,1.0,2.0,26,0.00,,,0.00,Wunderground v.1.15,2013-02-03 16:04:00,
2013-02-03 09:10:00,53.4,19.3,30.25,ESE,115,1.0,1.0,26,0.00,,,0.00,Wunderground v.1.15,2013-02-03 16:10:00,
2013-02-03 09:15:00,53.5,19.4,30.25,SSE,149,1.0,1.0,26,0.00,,,0.00,Wunderground v.1.15,2013-02-03 16:15:00,
2013-02-03 09:21:00,53.7,19.6,30.24,ENE,68,1.0,2.0,26,0.00,,,0.00,Wunderground v.1.15,2013-02-03 16:21:00,
2013-02-03 09:28:00,53.9,19.8,30.25,SE,134,2.0,3.0,26,0.00,,,0.00,Wunderground v.1.15,2013-02-03 16:28:00,
2013-02-03 09:34:00,54.0,19.8,30.25,ESE,108,1.0,3.0,26,0.00,,,0.00,Wunderground v.1.15,2013-02-03 16:34:00,
2013-02-03 09:39:00,54.1,19.9,30.24,SE,146,1.0,1.0,26,0.00,,,0.00,Wunderground v.1.15,2013-02-03 16:39:00,
2013-02-03 09:46:00,54.2,20.0,30.24,ESE,113,2.0,3.0,26,0.00,,,0.00,Wunderground v.1.15,2013-02-03 16:46:00,
2013-02-03 09:52:00,54.3,19.2,30.25,SE,137,2.0,2.0,25,0.00,,,0.00,Wunderground v.1.15,2013-02-03 16:52:00,
2013-02-03 09:57:00,54.4,19.3,30.25,SSE,158,1.0,4.0,25,0.00,,,0.00,Wunderground v.1.15,2013-02-03 16:57:00,
2013-02-03 10:04:00,54.6,20.4,30.25,SE,134,1.0,4.0,26,0.00,,,0.00,Wunderground v.1.15,2013-02-03 17:04:00,
2013-02-03 10:10:00,54.9,19.7,30.25,SE,146,2.0,2.0,25,0.00,,,0.00,Wunderground v.1.15,2013-02-03 17:10:00,
2013-02-03 10:15:00,55.3,20.0,30.24,ESE,107,2.0,4.0,25,0.00,,,0.00,Wunderground v.1.15,2013-02-03 17:15:00,
2013-02-03 10:22:00,55.5,20.2,30.25,SSE,163,2.0,3.0,25,0.00,,,0.00,Wunderground v.1.15,2013-02-03 17:22:00,
2013-02-03 10:28:00,55.9,19.6,30.25,South,176,1.0,3.0,24,0.00,,,0.00,Wunderground v.1.15,2013-02-03 17:28:00,
2013-02-03 10:33:00,56.3,19.9,30.25,SSE,153,1.0,2.0,24,0.00,,,0.00,Wunderground v.1.15,2013-02-03 17:33:00,
2013-02-03 10:40:00,56.6,20.2,30.25,SSW,193,1.0,1.0,24,0.00,,,0.00,Wunderground v.1.15,2013-02-03 17:40:00,
2013-02-03 10:46:00,57.0,20.5,30.25,East,94,1.0,1.0,24,0.00,,,0.00,Wunderground v.1.15,2013-02-03 17:46:00,
2013-02-03 10:51:00,57.1,20.6,30.25,ENE,67,1.0,1.0,24,0.00,,,0.00,Wunderground v.1.15,2013-02-03 17:51:00,
2013-02-03 10:58:00,57.5,20.9,30.25,East,91,1.0,1.0,24,0.00,,,0.00,Wunderground v.1.15,2013-02-03 17:58:00,
2013-02-03 11:04:00,57.7,20.1,30.25,East,89,0.0,1.0,23,0.00,,,0.00,Wunderground v.1.15,2013-02-03 18:04:00,
2013-02-03 11:09:00,57.4,19.9,30.24,East,101,1.0,1.0,23,0.00,,,0.00,Wunderground v.1.15,2013-02-03 18:09:00,
2013-02-03 11:15:00,57.5,20.9,30.25,WNW,293,1.0,3.0,24,0.00,,,0.00,Wunderground v.1.15,2013-02-03 18:15:00,
2013-02-03 11:22:00,58.0,21.4,30.24,WNW,301,1.0,1.0,24,0.00,,,0.00,Wunderground v.1.15,2013-02-03 18:22:00,
2013-02-03 11:27:00,58.0,21.4,30.24,East,86,1.0,2.0,24,0.00,,,0.00,Wunderground v.1.15,2013-02-03 18:27:00,
2013-02-03 11:34:00,57.8,21.2,30.24,East,94,1.0,3.0,24,0.00,,,0.00,Wunderground v.1.15,2013-02-03 18:34:00,
2013-02-03 11:40:00,57.3,20.8,30.23,ENE,58,2.0,3.0,24,0.00,,,0.00,Wunderground v.1.15,2013-02-03 18:40:00,
2013-02-03 11:45:00,57.5,21.9,30.23,ENE,57,2.0,3.0,25,0.00,,,0.00,Wunderground v.1.15,2013-02-03 18:45:00,
2013-02-03 11:52:00,57.8,22.2,30.22,ESE,113,2.0,5.0,25,0.00,,,0.00,Wunderground v.1.15,2013-02-03 18:52:00,
2013-02-03 11:57:00,58.1,22.4,30.23,ENE,78,2.0,5.0,25,0.00,,,0.00,Wunderground v.1.15,2013-02-03 18:57:00,
2013-02-03 12:04:00,57.7,23.0,30.22,East,88,2.0,3.0,26,0.00,,,0.00,Wunderground v.1.15,2013-02-03 19:04:00,
2013-02-03 12:10:00,58.0,23.3,30.22,East,90,1.0,1.0,26,0.00,,,0.00,Wunderground v.1.15,2013-02-03 19:10:00,
2013-02-03 12:16:00,58.4,23.6,30.21,ENE,68,1.0,1.0,26,0.00,,,0.00,Wunderground v.1.15,2013-02-03 19:16:00,
2013-02-03 12:21:00,58.6,22.8,30.21,ENE,67,1.0,1.0,25,0.00,,,0.00,Wunderground v.1.15,2013-02-03 19:21:00,
2013-02-03 12:28:00,58.7,23.9,30.20,East,88,1.0,1.0,26,0.00,,,0.00,Wunderground v.1.15,2013-02-03 19:28:00,
2013-02-03 12:33:00,59.1,24.2,30.20,SE,139,1.0,1.0,26,0.00,,,0.00,Wunderground v.1.15,2013-02-03 19:33:00,
2013-02-03 12:39:00,59.3,24.4,30.20,ESE,118,1.0,1.0,26,0.00,,,0.00,Wunderground v.1.15,2013-02-03 19:39:00,
2013-02-03 12:46:00,59.8,24.8,30.19,ESE,103,0.0,1.0,26,0.00,,,0.00,Wunderground v.1.15,2013-02-03 19:46:00,
2013-02-03 12:52:00,60.2,24.2,30.19,East,89,1.0,3.0,25,0.00,,,0.00,Wunderground v.1.15,2013-02-03 19:52:00,
2013-02-03 12:58:00,60.1,25.1,30.19,SE,141,1.0,3.0,26,0.00,,,0.00,Wunderground v.1.15,2013-02-03 19:58:00,
2013-02-03 13:03:00,60.3,25.2,30.19,ENE,63,1.0,4.0,26,0.00,,,0.00,Wunderground v.1.15,2013-02-03 20:03:00,
2013-02-03 13:10:00,59.7,25.6,30.18,ENE,62,1.0,1.0,27,0.00,,,0.00,Wunderground v.1.15,2013-02-03 20:10:00,
2013-02-03 13:16:00,59.8,25.7,30.18,NE,55,1.0,2.0,27,0.00,,,0.00,Wunderground v.1.15,2013-02-03 20:16:00,
2013-02-03 13:21:00,59.8,24.8,30.18,ENE,70,1.0,2.0,26,0.00,,,0.00,Wunderground v.1.15,2013-02-03 20:21:00,
2013-02-03 13:28:00,59.9,25.8,30.17,NE,53,1.0,2.0,27,0.00,,,0.00,Wunderground v.1.15,2013-02-03 20:28:00,
2013-02-03 13:34:00,60.1,25.1,30.17,ENE,70,0.0,1.0,26,0.00,,,0.00,Wunderground v.1.15,2013-02-03 20:34:00,
2013-02-03 13:39:00,60.7,26.5,30.17,SE,134,0.0,1.0,27,0.00,,,0.00,Wunderground v.1.15,2013-02-03 20:39:00,
2013-02-03 13:46:00,60.9,26.7,30.16,ENE,70,1.0,1.0,27,0.00,,,0.00,Wunderground v.1.15,2013-02-03 20:46:00,
2013-02-03 13:52:00,60.7,25.6,30.16,ENE,64,1.0,2.0,26,0.00,,,0.00,Wunderground v.1.15,2013-02-03 20:52:00,
2013-02-03 13:57:00,60.4,26.2,30.16,ENE,61,2.0,2.0,27,0.00,,,0.00,Wunderground v.1.15,2013-02-03 20:57:00,
2013-02-03 14:04:00,60.2,26.1,30.16,West,260,2.0,2.0,27,0.00,,,0.00,Wunderground v.1.15,2013-02-03 21:04:00,
2013-02-03 14:10:00,60.9,30.8,30.16,NW,318,3.0,10.0,32,0.00,,,0.00,Wunderground v.1.15,2013-02-03 21:10:00,
2013-02-03 14:16:00,59.1,32.8,30.16,WNW,287,9.0,17.0,37,0.00,,,0.00,Wunderground v.1.15,2013-02-03 21:16:00,
2013-02-03 14:21:00,57.4,34.5,30.17,NW,314,12.0,12.0,42,0.00,,,0.00,Wunderground v.1.15,2013-02-03 21:21:00,
2013-02-03 14:28:00,56.1,35.0,30.17,WSW,257,12.0,15.0,45,0.00,,,0.00,Wunderground v.1.15,2013-02-03 21:28:00,
2013-02-03 14:34:00,55.3,35.9,30.18,NW,312,11.0,12.0,48,0.00,,,0.00,Wunderground v.1.15,2013-02-03 21:34:00,
2013-02-03 14:39:00,54.5,36.2,30.18,WNW,288,8.0,11.0,50,0.00,,,0.00,Wunderground v.1.15,2013-02-03 21:39:00,
2013-02-03 14:46:00,53.3,38.0,30.17,West,279,7.0,11.0,56,0.00,,,0.00,Wunderground v.1.15,2013-02-03 21:46:00,
2013-02-03 14:52:00,52.7,39.2,30.17,WNW,285,7.0,7.0,60,0.00,,,0.00,Wunderground v.1.15,2013-02-03 21:52:00,
2013-02-03 14:57:00,52.5,39.4,30.18,WNW,282,7.0,9.0,61,0.00,,,0.00,Wunderground v.1.15,2013-02-03 21:57:00,
2013-02-03 15:04:00,52.6,39.1,30.17,West,281,7.0,7.0,60,0.00,,,0.00,Wunderground v.1.15,2013-02-03 22:04:00,
2013-02-03 15:09:00,52.4,38.9,30.18,WSW,251,8.0,8.0,60,0.00,,,0.00,Wunderground v.1.15,2013-02-03 22:09:00,
2013-02-03 15:15:00,52.2,39.1,30.18,WNW,284,8.0,9.0,61,0.00,,,0.00,Wunderground v.1.15,2013-02-03 22:15:00,
2013-02-03 15:22:00,52.3,38.8,30.17,West,273,7.0,7.0,60,0.00,,,0.00,Wunderground v.1.15,2013-02-03 22:22:00,
2013-02-03 15:28:00,52.5,39.0,30.17,West,259,7.0,8.0,60,0.00,,,0.00,Wunderground v.1.15,2013-02-03 22:28:00,
2013-02-03 15:34:00,52.6,38.7,30.17,WNW,290,7.0,7.0,59,0.00,,,0.00,Wunderground v.1.15,2013-02-03 22:34:00,
2013-02-03 15:40:00,52.9,39.0,30.17,West,279,6.0,6.0,59,0.00,,,0.00,Wunderground v.1.15,2013-02-03 22:40:00,
2013-02-03 15:45:00,53.3,38.9,30.17,West,269,5.0,6.0,58,0.00,,,0.00,Wunderground v.1.15,2013-02-03 22:45:00,
2013-02-03 15:52:00,53.6,38.3,30.17,WNW,289,3.0,4.0,56,0.00,,,0.00,Wunderground v.1.15,2013-02-03 22:52:00,
2013-02-03 15:58:00,53.8,38.5,30.16,WNW,284,2.0,4.0,56,0.00,,,0.00,Wunderground v.1.15,2013-02-03 22:58:00,
2013-02-03 16:03:00,54.0,39.1,30.16,West,278,1.0,3.0,57,0.00,,,0.00,Wunderground v.1.15,2013-02-03 23:03:00,
2013-02-03 16:10:00,54.3,38.0,30.16,West,280,1.0,1.0,54,0.00,,,0.00,Wunderground v.1.15,2013-02-03 23:10:00,
2013-02-03 16:16:00,54.7,38.4,30.15,SW,228,1.0,1.0,54,0.00,,,0.00,Wunderground v.1.15,2013-02-03 23:16:00,
2013-02-03 16:21:00,55.0,36.7,30.15,SSW,211,2.0,3.0,50,0.00,,,0.00,Wunderground v.1.15,2013-02-03 23:21:00,
2013-02-03 16:28:00,55.3,36.5,30.15,SW,231,2.0,3.0,49,0.00,,,0.00,Wunderground v.1.15,2013-02-03 23:28:00,
2013-02-03 16:33:00,55.4,37.1,30.15,WSW,245,2.0,2.0,50,0.00,,,0.00,Wunderground v.1.15,2013-02-03 23:33:00,
2013-02-03 16:39:00,55.7,36.8,30.15,West,260,2.0,3.0,49,0.00,,,0.00,Wunderground v.1.15,2013-02-03 23:39:00,
2013-02-03 16:46:00,55.9,36.5,30.15,West,260,3.0,4.0,48,0.00,,,0.00,Wunderground v.1.15,2013-02-03 23:46:00,
2013-02-03 16:52:00,56.1,36.1,30.15,WSW,242,3.0,3.0,47,0.00,,,0.00,Wunderground v.1.15,2013-02-03 23:52:00,
2013-02-03 17:00:00,57.5,34.0,30.16,WSW,248,4.0,4.0,41,0.00,,,0.00,Wunderground v.1.15,2013-02-04 00:00:00,
2013-02-03 17:06:00,57.9,34.3,30.15,NNE,27,2.0,4.0,41,0.00,,,0.00,Wunderground v.1.15,2013-02-04 00:06:00,
2013-02-03 17:11:00,58.2,34.6,30.15,SW,228,1.0,1.0,41,0.00,,,0.00,Wunderground v.1.15,2013-02-04 00:11:00,
2013-02-03 17:18:00,59.1,35.4,30.15,SW,228,0.0,1.0,41,0.00,,,0.00,Wunderground v.1.15,2013-02-04 00:18:00,
2013-02-03 17:24:00,58.8,37.5,30.15,ENE,65,0.0,3.0,45,0.00,,,0.00,Wunderground v.1.15,2013-02-04 00:24:00,
2013-02-03 17:29:00,57.5,38.5,30.15,ESE,117,1.0,2.0,49,0.00,,,0.00,Wunderground v.1.15,2013-02-04 00:29:00,
2013-02-03 17:36:00,56.4,40.0,30.16,SE,141,1.0,3.0,54,0.00,,,0.00,Wunderground v.1.15,2013-02-04 00:36:00,
2013-02-03 17:41:00,55.3,39.9,30.16,SSW,207,1.0,4.0,56,0.00,,,0.00,Wunderground v.1.15,2013-02-04 00:41:00,
2013-02-03 17:48:00,54.3,39.8,30.16,SSE,162,1.0,4.0,58,0.00,,,0.00,Wunderground v.1.15,2013-02-04 00:48:00,
2013-02-03 17:54:00,53.4,39.9,30.16,SE,134,1.0,3.0,60,0.00,,,0.00,Wunderground v.1.15,2013-02-04 00:54:00,
2013-02-03 17:59:00,52.8,39.7,30.16,SSE,150,1.0,1.0,61,0.00,,,0.00,Wunderground v.1.15,2013-02-04 00:59:00,
2013-02-03 18:06:00,52.1,39.5,30.16,SE,140,0.0,1.0,62,0.00,,,0.00,Wunderground v.1.15,2013-02-04 01:06:00,
2013-02-03 18:12:00,51.5,39.7,30.17,SW,218,0.0,1.0,64,0.00,,,0.00,Wunderground v.1.15,2013-02-04 01:12:00,
2013-02-03 18:18:00,50.9,39.1,30.17,SW,217,0.0,1.0,64,0.00,,,0.00,Wunderground v.1.15,2013-02-04 01:18:00,
2013-02-03 18:24:00,50.2,38.9,30.17,SSW,201,0.0,1.0,65,0.00,,,0.00,Wunderground v.1.15,2013-02-04 01:24:00,
2013-02-03 18:30:00,49.9,39.0,30.17,SSW,213,0.0,1.0,66,0.00,,,0.00,Wunderground v.1.15,2013-02-04 01:30:00,
2013-02-03 18:35:00,49.4,38.1,30.17,SSW,207,0.0,1.0,65,0.00,,,0.00,Wunderground v.1.15,2013-02-04 01:35:00,
2013-02-03 18:42:00,48.9,37.6,30.17,SW,233,0.0,2.0,65,0.00,,,0.00,Wunderground v.1.15,2013-02-04 01:42:00,
2013-02-03 18:48:00,48.3,37.5,30.17,SW,214,0.0,2.0,66,0.00,,,0.00,Wunderground v.1.15,2013-02-04 01:48:00,
2013-02-03 18:53:00,48.0,37.2,30.18,SSW,211,1.0,2.0,66,0.00,,,0.00,Wunderground v.1.15,2013-02-04 01:53:00,
2013-02-03 19:00:00,47.7,37.3,30.18,South,186,1.0,1.0,67,0.00,,,0.00,Wunderground v.1.15,2013-02-04 02:00:00,
2013-02-03 19:06:00,47.2,36.8,30.17,SSE,157,1.0,2.0,67,0.00,,,0.00,Wunderground v.1.15,2013-02-04 02:06:00,
2013-02-03 19:12:00,46.7,36.7,30.18,SSW,192,1.0,2.0,68,0.00,,,0.00,Wunderground v.1.15,2013-02-04 02:12:00,
2013-02-03 19:18:00,46.5,36.9,30.18,SSW,208,1.0,2.0,69,0.00,,,0.00,Wunderground v.1.15,2013-02-04 02:18:00,
2013-02-03 19:24:00,46.4,36.8,30.18,SSW,210,1.0,2.0,69,0.00,,,0.00,Wunderground v.1.15,2013-02-04 02:24:00,
2013-02-03 19:30:00,46.3,36.7,30.18,South,191,1.0,1.0,69,0.00,,,0.00,Wunderground v.1.15,2013-02-04 02:30:00,
2013-02-03 19:36:00,46.1,36.1,30.18,SW,218,1.0,2.0,68,0.00,,,0.00,Wunderground v.1.15,2013-02-04 02:36:00,
2013-02-03 19:42:00,45.5,35.9,30.17,SSW,207,1.0,2.0,69,0.00,,,0.00,Wunderground v.1.15,2013-02-04 02:42:00,
2013-02-03 19:48:00,45.9,35.6,30.18,South,188,1.0,2.0,67,0.00,,,0.00,Wunderground v.1.15,2013-02-04 02:48:00,
2013-02-03 19:54:00,45.9,35.6,30.18,SSW,206,0.0,1.0,67,0.00,,,0.00,Wunderground v.1.15,2013-02-04 02:54:00,
2013-02-03 19:59:00,45.8,35.5,30.18,SW,222,0.0,1.0,67,0.00,,,0.00,Wunderground v.1.15,2013-02-04 02:59:00,
2013-02-03 20:06:00,45.8,35.1,30.19,SSW,197,1.0,1.0,66,0.00,,,0.00,Wunderground v.1.15,2013-02-04 03:06:00,
2013-02-03 20:12:00,46.1,35.4,30.19,WSW,243,1.0,1.0,66,0.00,,,0.00,Wunderground v.1.15,2013-02-04 03:12:00,
2013-02-03 20:17:00,46.1,35.4,30.19,SSW,212,0.0,3.0,66,0.00,,,0.00,Wunderground v.1.15,2013-02-04 03:17:00,
2013-02-03 20:24:00,46.4,34.9,30.19,SSW,212,0.0,1.0,64,0.00,,,0.00,Wunderground v.1.15,2013-02-04 03:24:00,
2013-02-03 20:30:00,47.0,34.6,30.19,South,181,0.0,1.0,62,0.00,,,0.00,Wunderground v.1.15,2013-02-04 03:30:00,
2013-02-03 20:35:00,46.7,34.8,30.19,SSW,210,0.0,1.0,63,0.00,,,0.00,Wunderground v.1.15,2013-02-04 03:35:00,
2013-02-03 20:42:00,46.7,34.4,30.20,SSW,200,0.0,1.0,62,0.00,,,0.00,Wunderground v.1.15,2013-02-04 03:42:00,
2013-02-03 20:48:00,46.5,34.2,30.20,SSW,194,0.0,1.0,62,0.00,,,0.00,Wunderground v.1.15,2013-02-04 03:48:00,
2013-02-03 20:54:00,46.4,34.5,30.20,SSW,205,0.0,1.0,63,0.00,,,0.00,Wunderground v.1.15,2013-02-04 03:54:00,
2013-02-03 21:00:00,45.9,34.4,30.20,SSE,162,0.0,1.0,64,0.00,,,0.00,Wunderground v.1.15,2013-02-04 04:00:00,
2013-02-03 21:06:00,45.5,34.0,30.20,SSE,157,0.0,2.0,64,0.00,,,0.00,Wunderground v.1.15,2013-02-04 04:06:00,
2013-02-03 21:12:00,45.7,33.8,30.20,SSW,193,1.0,1.0,63,0.00,,,0.00,Wunderground v.1.15,2013-02-04 04:12:00,
2013-02-03 21:18:00,45.7,34.2,30.21,SW,221,0.0,1.0,64,0.00,,,0.00,Wunderground v.1.15,2013-02-04 04:18:00,
2013-02-03 21:23:00,45.9,34.0,30.20,South,180,0.0,1.0,63,0.00,,,0.00,Wunderground v.1.15,2013-02-04 04:23:00,
2013-02-03 21:30:00,46.4,34.1,30.20,SW,221,0.0,1.0,62,0.00,,,0.00,Wunderground v.1.15,2013-02-04 04:30:00,
2013-02-03 21:36:00,46.7,34.0,30.20,WSW,239,0.0,1.0,61,0.00,,,0.00,Wunderground v.1.15,2013-02-04 04:36:00,
2013-02-03 21:41:00,47.6,34.0,30.20,WSW,256,0.0,1.0,59,0.00,,,0.00,Wunderground v.1.15,2013-02-04 04:41:00,
2013-02-03 21:48:00,51.0,34.5,30.20,West,267,1.0,4.0,53,0.00,,,0.00,Wunderground v.1.15,2013-02-04 04:48:00,
2013-02-03 21:54:00,52.5,34.4,30.20,SW,226,2.0,3.0,50,0.00,,,0.00,Wunderground v.1.15,2013-02-04 04:54:00,
2013-02-03 21:59:00,52.6,34.0,30.20,SSW,208,1.0,1.0,49,0.00,,,0.00,Wunderground v.1.15,2013-02-04 04:59:00,
2013-02-03 22:02:00,52.6,34.5,30.20,SSW,208,1.0,1.0,50,0.00,,,0.00,Wunderground v.1.15,2013-02-04 05:02:00,
2013-02-03 22:04:00,52.4,34.3,30.20,SSW,208,0.0,1.0,50,0.00,,,0.00,Wunderground v.1.15,2013-02-04 05:04:00,
2013-02-03 22:06:00,52.3,34.2,30.20,SW,222,0.0,1.0,50,0.00,,,0.00,Wunderground v.1.15,2013-02-04 05:06:00,
2013-02-03 22:12:00,52.1,34.5,30.20,WSW,243,0.0,1.0,51,0.00,,,0.00,Wunderground v.1.15,2013-02-04 05:12:00,
2013-02-03 22:17:00,52.1,34.5,30.20,SW,218,1.0,3.0,51,0.00,,,0.00,Wunderground v.1.15,2013-02-04 05:17:00,
2013-02-03 22:19:00,52.0,34.4,30.20,SSW,211,1.0,3.0,51,0.00,,,0.00,Wunderground v.1.15,2013-02-04 05:19:00,
2013-02-03 22:26:00,52.0,34.4,30.20,SSW,196,2.0,3.0,51,0.00,,,0.00,Wunderground v.1.15,2013-02-04 05:26:00,
2013-02-03 22:31:00,52.2,34.1,30.20,SW,236,2.0,3.0,50,0.00,,,0.00,Wunderground v.1.15,2013-02-04 05:31:00,
2013-02-03 22:38:00,52.7,34.1,30.19,SW,235,2.0,4.0,49,0.00,,,0.00,Wunderground v.1.15,2013-02-04 05:38:00,
2013-02-03 22:44:00,52.9,33.7,30.19,West,262,2.0,3.0,48,0.00,,,0.00,Wunderground v.1.15,2013-02-04 05:44:00,
2013-02-03 22:49:00,53.7,33.4,30.19,WSW,257,3.0,5.0,46,0.00,,,0.00,Wunderground v.1.15,2013-02-04 05:49:00,
2013-02-03 22:56:00,53.6,33.8,30.19,WSW,256,3.0,5.0,47,0.00,,,0.00,Wunderground v.1.15,2013-02-04 05:56:00,
2013-02-03 23:01:00,53.5,33.7,30.19,SW,217,3.0,3.0,47,0.00,,,0.00,Wunderground v.1.15,2013-02-04 06:01:00,
2013-02-03 23:08:00,53.4,33.7,30.19,SSW,201,3.0,6.0,47,0.00,,,0.00,Wunderground v.1.15,2013-02-04 06:08:00,
2013-02-03 23:14:00,53.7,33.4,30.20,WSW,257,4.0,5.0,46,0.00,,,0.00,Wunderground v.1.15,2013-02-04 06:14:00,
2013-02-03 23:19:00,53.7,33.4,30.19,WSW,245,3.0,3.0,46,0.00,,,0.00,Wunderground v.1.15,2013-02-04 06:19:00,
2013-02-03 23:26:00,53.7,33.4,30.19,WSW,251,3.0,6.0,46,0.00,,,0.00,Wunderground v.1.15,2013-02-04 06:26:00,
2013-02-03 23:31:00,53.7,33.4,30.19,SSW,200,2.0,3.0,46,0.00,,,0.00,Wunderground v.1.15,2013-02-04 06:31:00,
2013-02-03 23:38:00,53.3,33.6,30.19,SW,218,2.0,3.0,47,0.00,,,0.00,Wunderground v.1.15,2013-02-04 06:38:00,
2013-02-03 23:43:00,52.6,33.5,30.19,SSE,158,2.0,3.0,48,0.00,,,0.00,Wunderground v.1.15,2013-02-04 06:43:00,
2013-02-03 23:50:00,51.9,33.8,30.19,SE,134,1.0,1.0,50,0.00,,,0.00,Wunderground v.1.15,2013-02-04 06:50:00,
2013-02-03 23:55:00,50.8,34.7,30.19,SSE,158,1.0,2.0,54,0.00,,,0.00,Wunderground v.1.15,2013-02-04 06:55:00,